createdAt,value
2022-09-03T00:00:14.640Z,25.40
2022-09-03T00:03:27.959Z,25.20
2022-09-03T00:06:33.014Z,25.20
2022-09-03T00:09:30.778Z,25.20
2022-09-03T00:12:24.768Z,25.10
2022-09-03T00:15:15.146Z,25.10
2022-09-03T00:18:12.966Z,25.10
2022-09-03T00:21:08.554Z,25.10
2022-09-03T00:23:56.209Z,25.10
2022-09-03T00:26:47.519Z,25.10
2022-09-03T00:29:40.150Z,25.10
2022-09-03T00:32:41.769Z,25.00
2022-09-03T00:35:28.747Z,25.00
2022-09-03T00:38:15.568Z,25.00
2022-09-03T00:41:33.810Z,24.90
2022-09-03T00:44:26.362Z,24.90
2022-09-03T00:47:38.529Z,24.90
2022-09-03T00:50:29.459Z,24.90
2022-09-03T00:53:37.085Z,24.90
2022-09-03T00:56:44.074Z,24.80
2022-09-03T00:59:44.588Z,24.80
2022-09-03T01:02:47.392Z,24.80
2022-09-03T01:05:52.181Z,24.80
2022-09-03T01:08:51.561Z,24.80
2022-09-03T01:12:17.360Z,24.70
2022-09-03T01:15:09.185Z,24.60
2022-09-03T01:18:02.109Z,24.60
2022-09-03T01:20:54.075Z,24.70
2022-09-03T01:24:09.065Z,24.70
2022-09-03T01:27:17.398Z,24.60
2022-09-03T01:30:09.816Z,24.50
2022-09-03T01:33:12.277Z,24.40
2022-09-03T01:39:51.143Z,24.40
2022-09-03T01:42:44.410Z,24.40
2022-09-03T01:45:51.686Z,24.30
2022-09-03T01:49:12.784Z,24.30
2022-09-03T01:52:11.932Z,24.20
2022-09-03T01:55:09.917Z,24.20
2022-09-03T01:57:58.501Z,24.20
2022-09-03T02:00:49.724Z,24.20
2022-09-03T02:03:41.191Z,24.30
2022-09-03T02:06:31.864Z,24.20
2022-09-03T02:09:19.369Z,24.20
2022-09-03T02:12:16.439Z,24.10
2022-09-03T02:15:07.085Z,24.20
2022-09-03T02:17:57.257Z,24.20
2022-09-03T02:20:43.779Z,24.20
2022-09-03T02:23:30.738Z,24.20
2022-09-03T02:26:21.607Z,24.10
2022-09-03T02:29:07.652Z,24.10
2022-09-03T02:31:53.816Z,24.00
2022-09-03T02:34:40.044Z,24.00
2022-09-03T02:37:26.719Z,24.10
2022-09-03T02:40:14.081Z,24.20
2022-09-03T02:43:00.383Z,24.20
2022-09-03T02:45:51.514Z,24.10
2022-09-03T02:48:37.483Z,24.10
2022-09-03T02:51:23.676Z,24.10
2022-09-03T02:54:11.419Z,24.00
2022-09-03T02:56:56.948Z,24.00
2022-09-03T02:59:45.440Z,24.00
2022-09-03T03:02:32.385Z,23.90
2022-09-03T03:05:32.353Z,23.80
2022-09-03T03:08:21.217Z,23.90
2022-09-03T03:11:08.266Z,23.90
2022-09-03T03:13:54.046Z,23.90
2022-09-03T03:16:39.993Z,23.90
2022-09-03T03:19:25.939Z,23.80
2022-09-03T03:22:11.943Z,23.80
2022-09-03T03:24:58.535Z,23.80
2022-09-03T03:27:44.540Z,23.80
2022-09-03T03:30:31.558Z,23.80
2022-09-03T03:33:17.525Z,23.70
2022-09-03T03:36:12.106Z,23.70
2022-09-03T03:38:59.692Z,23.70
2022-09-03T03:41:45.249Z,23.70
2022-09-03T03:44:30.777Z,23.70
2022-09-03T03:47:17.047Z,23.60
2022-09-03T03:50:04.983Z,23.60
2022-09-03T03:52:50.967Z,23.60
2022-09-03T03:55:36.423Z,23.50
2022-09-03T03:58:23.195Z,23.40
2022-09-03T04:01:11.364Z,23.40
2022-09-03T04:04:00.261Z,23.40
2022-09-03T04:06:46.003Z,23.40
2022-09-03T04:09:31.786Z,23.40
2022-09-03T04:12:17.498Z,23.30
2022-09-03T04:15:03.399Z,23.30
2022-09-03T04:17:49.360Z,23.30
2022-09-03T04:20:38.649Z,23.30
2022-09-03T04:23:24.782Z,23.30
2022-09-03T04:26:12.709Z,23.30
2022-09-03T04:29:08.868Z,23.30
2022-09-03T04:32:13.158Z,23.30
2022-09-03T04:34:59.206Z,23.30
2022-09-03T04:37:44.612Z,23.30
2022-09-03T04:40:30.496Z,23.30
2022-09-03T04:43:16.152Z,23.30
2022-09-03T04:46:04.317Z,23.30
2022-09-03T04:48:52.174Z,23.30
2022-09-03T04:51:38.416Z,23.30
2022-09-03T04:54:29.224Z,23.30
2022-09-03T04:57:15.341Z,23.20
2022-09-03T05:00:00.765Z,23.20
2022-09-03T05:02:48.590Z,23.20
2022-09-03T05:05:34.383Z,23.20
2022-09-03T05:08:19.845Z,23.10
2022-09-03T05:11:06.853Z,23.10
2022-09-03T05:13:55.333Z,23.20
2022-09-03T05:16:41.097Z,23.10
2022-09-03T05:19:26.936Z,23.10
2022-09-03T05:22:12.843Z,23.10
2022-09-03T05:24:59.156Z,23.10
2022-09-03T05:27:44.871Z,23.10
2022-09-03T05:30:30.245Z,23.10
2022-09-03T05:33:16.526Z,23.10
2022-09-03T05:36:07.696Z,23.10
2022-09-03T05:38:58.410Z,23.10
2022-09-03T05:41:44.602Z,23.10
2022-09-03T05:44:30.448Z,23.00
2022-09-03T05:47:16.524Z,23.00
2022-09-03T05:50:02.376Z,23.00
2022-09-03T05:52:48.773Z,23.00
2022-09-03T05:55:34.323Z,23.00
2022-09-03T05:58:20.373Z,23.10
2022-09-03T06:01:16.300Z,23.00
2022-09-03T06:04:13.997Z,23.00
2022-09-03T06:07:00.254Z,23.00
2022-09-03T06:09:45.922Z,23.00
2022-09-03T06:12:31.203Z,22.90
2022-09-03T06:15:16.969Z,22.90
2022-09-03T06:18:02.264Z,23.10
2022-09-03T06:20:58.545Z,23.10
2022-09-03T06:23:45.760Z,23.10
2022-09-03T06:26:33.057Z,23.20
2022-09-03T06:29:20.368Z,23.30
2022-09-03T06:32:06.321Z,23.30
2022-09-03T06:34:51.912Z,23.50
2022-09-03T06:37:41.599Z,23.50
2022-09-03T06:40:27.058Z,23.70
2022-09-03T06:43:12.735Z,23.70
2022-09-03T06:46:00.830Z,23.70
2022-09-03T06:48:47.428Z,23.90
2022-09-03T06:51:34.244Z,24.10
2022-09-03T06:54:20.832Z,24.00
2022-09-03T06:57:06.688Z,24.00
2022-09-03T06:59:54.652Z,24.00
2022-09-03T07:02:44.791Z,24.10
2022-09-03T07:05:31.351Z,24.00
2022-09-03T07:08:16.812Z,24.10
2022-09-03T07:11:07.109Z,24.10
2022-09-03T07:13:53.737Z,24.20
2022-09-03T07:16:41.849Z,24.10
2022-09-03T07:19:27.347Z,24.10
2022-09-03T07:22:13.062Z,24.10
2022-09-03T07:24:59.224Z,24.20
2022-09-03T07:27:44.914Z,24.20
2022-09-03T07:30:30.447Z,24.30
2022-09-03T07:33:16.313Z,24.40
2022-09-03T07:36:14.435Z,24.20
2022-09-03T07:39:00.763Z,24.30
2022-09-03T07:41:47.521Z,24.40
2022-09-03T07:44:33.128Z,24.50
2022-09-03T07:47:26.900Z,24.60
2022-09-03T07:50:13.112Z,24.60
2022-09-03T07:52:59.470Z,24.70
2022-09-03T07:55:45.536Z,24.80
2022-09-03T07:58:33.370Z,24.90
2022-09-03T08:01:22.598Z,24.90
2022-09-03T08:04:09.604Z,25.10
2022-09-03T08:06:56.807Z,25.10
2022-09-03T08:09:43.316Z,25.30
2022-09-03T08:12:29.141Z,25.30
2022-09-03T08:15:15.427Z,25.40
2022-09-03T08:18:05.906Z,25.30
2022-09-03T08:20:52.128Z,25.30
2022-09-03T08:23:39.643Z,25.20
2022-09-03T08:26:25.302Z,25.20
2022-09-03T08:29:10.741Z,25.20
2022-09-03T08:31:56.703Z,25.30
2022-09-03T08:34:42.638Z,25.40
2022-09-03T08:37:28.992Z,25.60
2022-09-03T08:40:14.787Z,25.80
2022-09-03T08:43:18.986Z,26.10
2022-09-03T08:46:04.937Z,26.10
2022-09-03T08:48:52.298Z,26.00
2022-09-03T08:51:40.284Z,26.30
2022-09-03T08:54:29.948Z,26.40
2022-09-03T08:57:19.304Z,26.50
2022-09-03T09:00:05.346Z,26.60
2022-09-03T09:02:50.856Z,26.70
2022-09-03T09:05:48.822Z,26.70
2022-09-03T09:08:53.232Z,26.80
2022-09-03T09:12:10.040Z,26.80
2022-09-03T09:14:58.642Z,26.60
2022-09-03T09:18:09.821Z,26.40
2022-09-03T09:21:17.714Z,26.60
2022-09-03T09:24:13.240Z,26.80
2022-09-03T09:27:02.768Z,26.80
2022-09-03T09:29:50.260Z,26.90
2022-09-03T09:32:38.372Z,26.90
2022-09-03T09:35:24.605Z,27.00
2022-09-03T09:38:11.949Z,27.00
2022-09-03T09:41:09.745Z,27.10
2022-09-03T09:44:03.399Z,27.00
2022-09-03T09:46:54.556Z,27.10
2022-09-03T09:49:46.895Z,27.30
2022-09-03T09:52:33.650Z,27.20
2022-09-03T09:55:20.596Z,27.20
2022-09-03T09:58:13.959Z,27.20
2022-09-03T10:01:19.720Z,27.10
2022-09-03T10:04:35.284Z,27.10
2022-09-03T10:07:33.061Z,27.00
2022-09-03T10:10:21.285Z,27.20
2022-09-03T10:13:19.530Z,27.30
2022-09-03T10:16:20.660Z,27.30
2022-09-03T10:19:18.026Z,27.50
2022-09-03T10:22:07.451Z,27.20
2022-09-03T10:25:04.058Z,27.40
2022-09-03T10:27:53.944Z,27.20
2022-09-03T10:31:19.112Z,27.30
2022-09-03T10:34:34.165Z,27.40
2022-09-03T10:37:46.809Z,27.60
2022-09-03T10:40:39.204Z,28.00
2022-09-03T10:43:33.850Z,28.10
2022-09-03T10:46:35.381Z,28.20
2022-09-03T10:49:49.490Z,28.00
2022-09-03T10:52:57.974Z,28.30
2022-09-03T10:56:05.569Z,28.10
2022-09-03T10:59:32.871Z,28.20
2022-09-03T11:02:44.700Z,28.10
2022-09-03T11:05:38.570Z,27.90
2022-09-03T11:09:13.054Z,27.80
2022-09-03T11:12:05.461Z,27.90
2022-09-03T11:14:59.801Z,28.10
2022-09-03T11:17:52.803Z,27.90
2022-09-03T11:20:40.375Z,27.70
2022-09-03T11:23:28.249Z,27.70
2022-09-03T11:26:19.775Z,27.90
2022-09-03T11:29:22.128Z,28.10
2022-09-03T11:32:22.108Z,28.20
2022-09-03T11:35:17.625Z,28.60
2022-09-03T11:38:06.071Z,29.00
2022-09-03T11:41:03.902Z,28.80
2022-09-03T11:43:49.384Z,28.90
2022-09-03T11:46:35.065Z,29.30
2022-09-03T11:49:30.009Z,29.30
2022-09-03T11:52:26.730Z,29.10
2022-09-03T11:55:12.358Z,29.10
2022-09-03T11:57:58.832Z,29.20
2022-09-03T12:00:45.078Z,29.40
2022-09-03T12:03:48.408Z,29.70
2022-09-03T12:07:07.663Z,30.20
2022-09-03T12:10:20.286Z,30.10
2022-09-03T12:13:14.873Z,30.20
2022-09-03T12:16:19.676Z,30.00
2022-09-03T12:19:26.614Z,30.30
2022-09-03T12:22:17.592Z,30.10
2022-09-03T12:25:14.540Z,30.30
2022-09-03T12:28:05.334Z,30.60
2022-09-03T12:30:53.790Z,30.60
2022-09-03T12:33:42.285Z,30.80
2022-09-03T12:36:49.835Z,31.00
2022-09-03T12:42:41.048Z,31.20
2022-09-03T12:46:10.048Z,31.20
2022-09-03T12:48:32.983Z,30.80
2022-09-03T12:54:25.761Z,30.70
2022-09-03T12:57:15.457Z,30.90
2022-09-03T13:00:07.777Z,30.90
2022-09-03T13:03:00.493Z,31.00
2022-09-03T13:05:52.770Z,31.60
2022-09-03T13:08:54.975Z,31.80
2022-09-03T13:11:42.693Z,32.00
2022-09-03T13:14:28.194Z,32.90
2022-09-03T13:17:16.817Z,35.30
2022-09-03T13:20:25.307Z,36.70
2022-09-03T13:23:30.749Z,35.70
2022-09-03T13:26:27.159Z,37.10
2022-09-03T13:29:27.563Z,35.70
2022-09-03T13:32:27.197Z,35.20
2022-09-03T13:35:26.968Z,34.10
2022-09-03T13:38:42.839Z,35.00
2022-09-03T13:41:43.235Z,34.30
2022-09-03T13:44:39.527Z,33.30
2022-09-03T13:47:28.082Z,33.20
2022-09-03T13:50:26.676Z,35.00
2022-09-03T13:53:22.704Z,33.80
2022-09-03T13:56:28.999Z,33.40
2022-09-03T13:59:34.255Z,32.80
2022-09-03T14:02:33.699Z,32.10
2022-09-03T14:05:34.696Z,31.80
2022-09-03T14:08:30.838Z,34.00
2022-09-03T14:11:19.466Z,33.70
2022-09-03T14:14:12.837Z,32.50
2022-09-03T14:17:21.313Z,32.10
2022-09-03T14:20:27.652Z,32.40
2022-09-03T14:23:38.626Z,35.70
2022-09-03T14:26:41.245Z,35.10
2022-09-03T14:29:30.956Z,37.30
2022-09-03T14:32:31.199Z,36.40
2022-09-03T14:35:16.967Z,36.10
2022-09-03T14:38:27.351Z,36.50
2022-09-03T14:41:37.177Z,36.30
2022-09-03T14:44:47.166Z,36.50
2022-09-03T14:48:02.231Z,35.70
2022-09-03T14:51:19.209Z,36.80
2022-09-03T14:54:35.844Z,37.40
2022-09-03T14:58:02.742Z,38.60
2022-09-03T15:01:06.950Z,36.60
2022-09-03T15:03:59.743Z,37.00
2022-09-03T15:06:45.200Z,38.80
2022-09-03T15:09:40.439Z,40.50
2022-09-03T15:12:40.154Z,40.00
2022-09-03T15:15:50.692Z,36.90
2022-09-03T15:18:49.849Z,36.60
2022-09-03T15:21:50.854Z,36.70
2022-09-03T15:25:03.913Z,38.00
2022-09-03T15:27:50.110Z,40.00
2022-09-03T15:30:44.753Z,40.50
2022-09-03T15:33:59.345Z,41.10
2022-09-03T15:36:49.628Z,41.70
2022-09-03T15:39:39.232Z,41.70
2022-09-03T15:42:29.176Z,41.60
2022-09-03T15:45:19.279Z,40.90
2022-09-03T15:48:34.879Z,39.60
2022-09-03T15:51:26.525Z,40.80
2022-09-03T15:54:27.125Z,40.70
2022-09-03T15:57:34.331Z,41.70
2022-09-03T16:00:22.531Z,41.70
2022-09-03T16:03:23.679Z,41.50
2022-09-03T16:06:37.485Z,41.50
2022-09-03T16:10:24.221Z,41.30
2022-09-03T16:13:55.122Z,41.00
2022-09-03T16:17:40.018Z,39.70
2022-09-03T16:20:31.909Z,39.80
2022-09-03T16:23:31.964Z,40.50
2022-09-03T16:26:33.711Z,40.40
2022-09-03T16:29:27.125Z,40.20
2022-09-03T16:32:18.968Z,37.90
2022-09-03T16:35:19.903Z,39.10
2022-09-03T16:38:22.379Z,39.60
2022-09-03T16:41:24.973Z,39.20
2022-09-03T16:44:57.401Z,37.10
2022-09-03T16:48:10.801Z,36.30
2022-09-03T16:51:26.679Z,36.20
2022-09-03T16:54:27.136Z,36.50
2022-09-03T16:57:38.925Z,35.70
2022-09-03T17:00:37.887Z,35.20
2022-09-03T17:04:07.709Z,34.80
2022-09-03T17:06:53.296Z,34.00
2022-09-03T17:09:58.166Z,33.30
2022-09-03T17:13:07.318Z,33.00
2022-09-03T17:16:00.844Z,32.60
2022-09-03T17:19:31.420Z,32.70
2022-09-03T17:22:46.743Z,32.60
2022-09-03T17:25:38.434Z,32.30
2022-09-03T17:28:40.286Z,31.80
2022-09-03T17:32:16.149Z,31.40
2022-09-03T17:35:16.291Z,31.30
2022-09-03T17:38:30.217Z,30.90
2022-09-03T17:41:40.754Z,30.80
2022-09-03T17:44:45.375Z,30.70
2022-09-03T17:47:39.902Z,30.40
2022-09-03T17:50:29.095Z,30.20
2022-09-03T17:53:40.896Z,30.10
2022-09-03T17:56:45.586Z,30.10
2022-09-03T18:00:10.396Z,30.00
2022-09-03T18:03:11.164Z,29.90
2022-09-03T18:06:01.200Z,29.70
2022-09-03T18:09:10.229Z,29.60
2022-09-03T18:12:34.725Z,29.40
2022-09-03T18:15:24.651Z,29.30
2022-09-03T18:18:25.053Z,29.10
2022-09-03T18:21:32.844Z,28.90
2022-09-03T18:25:03.310Z,28.80
2022-09-03T18:28:16.410Z,28.80
2022-09-03T18:31:21.279Z,28.70
2022-09-03T18:34:27.469Z,28.50
2022-09-03T18:37:37.761Z,28.40
2022-09-03T18:40:53.622Z,28.40
2022-09-03T18:44:10.452Z,28.40
2022-09-03T18:51:11.409Z,28.30
2022-09-03T18:54:56.827Z,28.10
2022-09-03T18:58:21.565Z,28.00
2022-09-03T19:01:50.937Z,27.80
2022-09-03T19:05:17.830Z,27.80
2022-09-03T19:08:44.488Z,27.90
2022-09-03T19:12:00.844Z,27.70
2022-09-03T19:15:25.918Z,27.70
2022-09-03T19:18:45.734Z,27.70
2022-09-03T19:22:12.831Z,27.60
2022-09-03T19:25:30.899Z,27.50
2022-09-03T19:28:38.315Z,27.10
2022-09-03T19:32:05.756Z,26.80
2022-09-03T19:35:45.364Z,26.70
2022-09-03T19:38:52.437Z,26.50
2022-09-03T19:42:06.877Z,26.40
2022-09-03T19:45:33.233Z,26.30
2022-09-03T19:48:46.822Z,26.20
2022-09-03T19:51:58.861Z,26.40
2022-09-03T19:55:04.645Z,26.20
2022-09-03T19:58:39.517Z,26.20
2022-09-03T20:01:48.913Z,26.20
2022-09-03T20:05:20.882Z,26.20
2022-09-03T20:08:27.076Z,26.10
2022-09-03T20:11:19.311Z,25.90
2022-09-03T20:14:14.662Z,26.00
2022-09-03T20:17:15.970Z,25.90
2022-09-03T20:20:01.498Z,26.00
2022-09-03T20:22:59.532Z,25.90
2022-09-03T20:25:55.237Z,25.80
2022-09-03T20:29:21.149Z,25.80
2022-09-03T20:32:18.128Z,25.70
2022-09-03T20:35:17.615Z,25.90
2022-09-03T20:38:09.187Z,25.80
2022-09-03T20:41:15.814Z,25.60
2022-09-03T20:44:37.712Z,25.60
2022-09-03T20:47:45.793Z,25.60
2022-09-03T20:50:43.697Z,25.60
2022-09-03T20:54:17.456Z,25.50
2022-09-03T20:57:10.928Z,25.40
2022-09-03T21:00:06.722Z,25.40
2022-09-03T21:03:21.780Z,25.40
2022-09-03T21:06:26.222Z,25.30
2022-09-03T21:09:29.929Z,25.30
2022-09-03T21:12:20.546Z,25.20
2022-09-03T21:15:32.519Z,25.30
2022-09-03T21:18:21.151Z,25.20
2022-09-03T21:21:18.293Z,25.10
2022-09-03T21:24:14.360Z,25.10
2022-09-03T21:27:06.274Z,25.10
2022-09-03T21:30:05.555Z,25.00
2022-09-03T21:33:03.021Z,25.10
2022-09-03T21:36:00.143Z,25.10
2022-09-03T21:38:53.577Z,25.10
2022-09-03T21:41:46.676Z,25.10
2022-09-03T21:45:00.113Z,25.00
2022-09-03T21:47:50.697Z,24.90
2022-09-03T21:50:54.294Z,24.90
2022-09-03T21:53:39.851Z,24.90
2022-09-03T21:56:27.437Z,25.00
2022-09-03T21:59:31.304Z,25.00
2022-09-03T22:02:27.097Z,25.00
2022-09-03T22:05:14.299Z,25.00
2022-09-03T22:08:17.630Z,25.10
2022-09-03T22:11:22.304Z,25.10
2022-09-03T22:14:12.821Z,25.10
2022-09-03T22:17:15.210Z,25.00
2022-09-03T22:20:00.880Z,24.90
2022-09-03T22:22:57.582Z,24.90
2022-09-03T22:26:07.790Z,24.90
2022-09-03T22:29:08.075Z,24.90
2022-09-03T22:32:28.895Z,24.80
2022-09-03T22:35:36.812Z,24.70
2022-09-03T22:38:35.594Z,24.70
2022-09-03T22:41:42.359Z,24.60
2022-09-03T22:45:05.080Z,24.60
2022-09-03T22:48:14.616Z,24.60
2022-09-03T22:51:02.588Z,24.50
2022-09-03T22:53:51.192Z,24.50
2022-09-03T22:56:40.529Z,24.50
2022-09-03T22:59:47.567Z,24.50
2022-09-03T23:02:34.546Z,24.50
2022-09-03T23:05:48.219Z,24.40
2022-09-03T23:08:47.533Z,24.40
2022-09-03T23:11:42.246Z,24.40
2022-09-03T23:14:35.092Z,24.40
2022-09-03T23:20:24.957Z,24.40
2022-09-03T23:23:27.920Z,24.40
2022-09-03T23:26:23.480Z,24.40
2022-09-03T23:29:18.630Z,24.40
2022-09-03T23:32:05.284Z,24.40
2022-09-03T23:34:51.029Z,24.20
2022-09-03T23:38:11.442Z,24.20
2022-09-03T23:41:04.081Z,24.20
2022-09-03T23:44:18.681Z,24.20
2022-09-03T23:47:34.714Z,24.10
2022-09-03T23:50:54.210Z,24.00
2022-09-03T23:54:01.200Z,24.00
2022-09-03T23:56:54.057Z,23.80
2022-09-03T23:59:51.600Z,23.60
